Oklahoma City, Oklahoma
Current Conditions -  °F | °C
As of 11:52 AM on Tuesday 21 Oct 2014 (Local Time) from KOKC Reporting Station
Few Clouds Few Clouds  
Wind Chill: 80°   Ceiling: Unl
Heat Index: 81°   Visibility: 10mi
Dew Point: 58°   Wind: 8mph
Humidity: 47%   Direction: 200°SSW
Pressure: 30.1"   Gusts: NA
Location:  35.47°N, 97.52°W
Report Text: KOKC 211652Z 20007KT 10SM FEW070 27/14 A3010 RMK AO2 SLP181 T02670144
Loading
Personal Weather Stations






























Interactive Weather Map
Tropical Storm Tracking
New forecast layout! Learn more

10-Day Weather Forecast

Advertisements
Track Severe Weather on mobile